createdAt,value
2023-02-08T00:01:15.813Z,32.10
2023-02-08T00:03:44.367Z,28.63
2023-02-08T00:06:14.635Z,31.00
2023-02-08T00:08:42.509Z,26.50
2023-02-08T00:11:11.820Z,28.08
2023-02-08T00:13:42.836Z,26.33
2023-02-08T00:16:12.217Z,29.15
2023-02-08T00:18:40.375Z,24.00
2023-02-08T00:21:10.254Z,30.88
2023-02-08T00:23:38.000Z,28.40
2023-02-08T00:26:06.077Z,27.77
2023-02-08T00:28:33.890Z,25.13
2023-02-08T00:31:03.499Z,27.13
2023-02-08T00:33:31.467Z,27.55
2023-02-08T00:36:00.923Z,29.80
2023-02-08T00:38:28.902Z,26.83
2023-02-08T00:40:56.664Z,27.15
2023-02-08T00:43:25.475Z,26.67
2023-02-08T00:45:55.454Z,25.42
2023-02-08T00:48:27.112Z,23.48
2023-02-08T00:51:02.346Z,28.15
2023-02-08T00:53:30.457Z,24.40
2023-02-08T00:55:58.242Z,28.20
2023-02-08T00:58:26.451Z,26.85
2023-02-08T01:00:54.901Z,30.58
2023-02-08T01:03:24.264Z,22.42
2023-02-08T01:05:53.795Z,27.17
2023-02-08T01:08:22.037Z,21.80
2023-02-08T01:10:50.048Z,22.30
2023-02-08T01:13:17.878Z,23.45
2023-02-08T01:15:45.639Z,25.00
2023-02-08T01:18:13.346Z,24.65
2023-02-08T01:20:42.652Z,26.38
2023-02-08T01:23:11.730Z,22.55
2023-02-08T01:25:40.199Z,31.70
2023-02-08T01:28:07.965Z,24.08
2023-02-08T01:30:35.799Z,24.42
2023-02-08T01:33:03.612Z,22.75
2023-02-08T01:35:31.411Z,27.40
2023-02-08T01:37:59.215Z,32.40
2023-02-08T01:40:28.315Z,31.95
2023-02-08T01:42:56.094Z,24.50
2023-02-08T01:45:29.849Z,30.00
2023-02-08T01:48:05.807Z,28.98
2023-02-08T01:50:41.895Z,30.08
2023-02-08T01:53:10.083Z,27.75
2023-02-08T01:55:47.967Z,27.38
2023-02-08T01:58:17.277Z,29.98
2023-02-08T02:00:45.497Z,26.42
2023-02-08T02:03:14.502Z,26.52
2023-02-08T02:05:44.589Z,27.67
2023-02-08T02:08:13.568Z,26.10
2023-02-08T02:10:43.992Z,24.45
2023-02-08T02:13:14.810Z,28.33
2023-02-08T02:15:45.287Z,23.52
2023-02-08T02:18:18.963Z,27.38
2023-02-08T02:21:02.346Z,24.75
2023-02-08T02:23:54.405Z,25.13
2023-02-08T02:26:56.492Z,26.48
2023-02-08T02:30:05.760Z,23.63
2023-02-08T02:32:57.195Z,24.55
2023-02-08T02:35:33.719Z,23.80
2023-02-08T02:38:12.674Z,27.38
2023-02-08T02:40:54.217Z,27.77
2023-02-08T02:43:45.030Z,22.30
2023-02-08T02:46:25.283Z,23.10
2023-02-08T02:49:03.512Z,26.75
2023-02-08T02:51:39.624Z,22.20
2023-02-08T02:54:12.384Z,25.67
2023-02-08T02:56:43.788Z,31.27
2023-02-08T02:59:14.040Z,38.38
2023-02-08T03:01:45.036Z,36.55
2023-02-08T03:04:16.354Z,40.95
2023-02-08T03:06:58.094Z,35.60
2023-02-08T03:09:45.738Z,29.17
2023-02-08T03:12:29.265Z,28.17
2023-02-08T03:15:03.094Z,26.90
2023-02-08T03:17:43.729Z,24.88
2023-02-08T03:20:17.171Z,23.10
2023-02-08T03:22:51.225Z,23.17
2023-02-08T03:25:22.334Z,25.90
2023-02-08T03:27:56.879Z,23.13
2023-02-08T03:30:31.906Z,22.60
2023-02-08T03:33:05.824Z,25.63
2023-02-08T03:35:39.975Z,23.10
2023-02-08T03:38:11.996Z,25.63
2023-02-08T03:40:43.265Z,21.52
2023-02-08T03:43:16.879Z,24.42
2023-02-08T03:45:48.700Z,25.73
2023-02-08T03:48:19.966Z,23.92
2023-02-08T03:50:53.661Z,26.38
2023-02-08T03:53:24.464Z,20.73
2023-02-08T03:55:59.603Z,22.95
2023-02-08T03:58:33.465Z,19.45
2023-02-08T04:01:06.677Z,23.00
2023-02-08T04:03:35.948Z,22.42
2023-02-08T04:06:05.231Z,24.08
2023-02-08T04:08:32.960Z,25.38
2023-02-08T04:11:00.681Z,24.63
2023-02-08T04:13:28.372Z,26.48
2023-02-08T04:15:56.168Z,22.08
2023-02-08T04:18:23.814Z,21.35
2023-02-08T04:20:51.530Z,24.67
2023-02-08T04:23:20.575Z,24.38
2023-02-08T04:25:48.276Z,22.83
2023-02-08T04:28:15.998Z,27.48
2023-02-08T04:30:44.013Z,22.58
2023-02-08T04:33:13.040Z,24.85
2023-02-08T04:35:40.699Z,23.92
2023-02-08T04:38:08.662Z,20.85
2023-02-08T04:40:37.887Z,27.33
2023-02-08T04:43:05.697Z,20.83
2023-02-08T04:45:33.464Z,24.55
2023-02-08T04:48:02.331Z,25.63
2023-02-08T04:50:30.223Z,23.30
2023-02-08T04:52:57.931Z,25.55
2023-02-08T04:55:25.642Z,25.17
2023-02-08T04:57:54.764Z,22.38
2023-02-08T05:00:22.525Z,23.73
2023-02-08T05:02:54.560Z,25.02
2023-02-08T05:05:22.711Z,25.65
2023-02-08T05:07:50.483Z,27.00
2023-02-08T05:10:18.872Z,26.60
2023-02-08T05:12:46.838Z,25.33
2023-02-08T05:15:15.893Z,23.83
2023-02-08T05:17:43.727Z,22.50
2023-02-08T05:20:13.634Z,32.95
2023-02-08T05:22:41.743Z,21.45
2023-02-08T05:25:10.084Z,20.17
2023-02-08T05:27:37.879Z,25.77
2023-02-08T05:30:06.267Z,24.00
2023-02-08T05:32:35.303Z,30.20
2023-02-08T05:35:03.113Z,23.30
2023-02-08T05:37:30.798Z,24.23
2023-02-08T05:39:58.555Z,26.98
2023-02-08T05:42:27.050Z,22.58
2023-02-08T05:44:54.887Z,25.48
2023-02-08T05:47:23.000Z,19.90
2023-02-08T05:49:52.169Z,25.92
2023-02-08T05:52:21.659Z,26.65
2023-02-08T05:54:49.357Z,22.05
2023-02-08T05:57:17.223Z,24.60
2023-02-08T05:59:44.992Z,23.80
2023-02-08T06:02:12.791Z,25.42
2023-02-08T06:04:40.576Z,26.17
2023-02-08T06:07:09.705Z,26.95
2023-02-08T06:09:37.612Z,19.70
2023-02-08T06:12:05.901Z,18.95
2023-02-08T06:14:33.877Z,22.70
2023-02-08T06:17:01.633Z,24.50
2023-02-08T06:19:29.322Z,29.42
2023-02-08T06:21:57.098Z,23.70
2023-02-08T06:24:26.607Z,27.80
2023-02-08T06:26:54.406Z,25.95
2023-02-08T06:29:22.345Z,26.00
2023-02-08T06:31:50.332Z,25.88
2023-02-08T06:34:18.101Z,27.88
2023-02-08T06:36:46.522Z,27.08
2023-02-08T06:39:14.379Z,26.98
2023-02-08T06:41:43.577Z,30.60
2023-02-08T06:44:11.354Z,29.02
2023-02-08T06:46:38.999Z,23.52
2023-02-08T06:49:06.754Z,26.38
2023-02-08T06:51:34.436Z,24.48
2023-02-08T06:54:02.208Z,27.70
2023-02-08T06:56:29.930Z,23.63
2023-02-08T06:58:59.234Z,30.40
2023-02-08T07:01:27.149Z,24.98
2023-02-08T07:03:55.141Z,25.88
2023-02-08T07:06:23.155Z,24.15
2023-02-08T07:08:51.023Z,28.23
2023-02-08T07:11:20.713Z,27.52
2023-02-08T07:13:49.226Z,26.23
2023-02-08T07:16:20.017Z,26.48
2023-02-08T07:18:48.004Z,27.77
2023-02-08T07:21:16.238Z,27.50
2023-02-08T07:23:44.123Z,25.80
2023-02-08T07:26:14.383Z,27.75
2023-02-08T07:28:44.066Z,28.80
2023-02-08T07:31:14.483Z,27.58
2023-02-08T07:33:44.198Z,26.25
2023-02-08T07:36:12.513Z,28.27
2023-02-08T07:38:40.468Z,23.15
2023-02-08T07:41:10.384Z,25.67
2023-02-08T07:43:39.618Z,31.63
2023-02-08T07:46:08.618Z,32.17
2023-02-08T07:48:38.583Z,29.95
2023-02-08T07:51:10.226Z,27.55
2023-02-08T07:53:38.641Z,29.08
2023-02-08T07:56:07.046Z,34.42
2023-02-08T07:58:34.962Z,23.05
2023-02-08T08:01:12.548Z,26.60
2023-02-08T08:03:47.732Z,20.88
2023-02-08T08:06:16.830Z,28.48
2023-02-08T08:08:47.349Z,25.38
2023-02-08T08:11:15.398Z,25.73
2023-02-08T08:13:43.513Z,23.38
2023-02-08T08:16:11.743Z,22.23
2023-02-08T08:18:39.824Z,22.20
2023-02-08T08:21:08.100Z,22.65
2023-02-08T08:23:37.344Z,20.63
2023-02-08T08:26:09.757Z,22.20
2023-02-08T08:28:38.073Z,19.23
2023-02-08T08:31:10.852Z,24.30
2023-02-08T08:33:38.651Z,24.27
2023-02-08T08:36:06.925Z,24.92
2023-02-08T08:38:34.651Z,21.60
2023-02-08T08:41:08.306Z,24.13
2023-02-08T08:43:35.987Z,19.42
2023-02-08T08:46:03.750Z,18.35
2023-02-08T08:48:31.485Z,21.02
2023-02-08T08:50:59.263Z,16.85
2023-02-08T08:53:27.092Z,20.83
2023-02-08T08:55:54.810Z,22.95
2023-02-08T08:58:24.180Z,29.55
2023-02-08T09:00:51.932Z,15.98
2023-02-08T09:03:19.729Z,22.38
2023-02-08T09:05:48.178Z,20.67
2023-02-08T09:08:15.918Z,18.30
2023-02-08T09:10:44.213Z,21.10
2023-02-08T09:13:19.146Z,20.65
2023-02-08T09:15:49.174Z,20.20
2023-02-08T09:18:17.438Z,25.27
2023-02-08T09:20:45.743Z,16.27
2023-02-08T09:23:14.531Z,16.50
2023-02-08T09:25:42.328Z,21.80
2023-02-08T09:28:10.257Z,15.57
2023-02-08T09:30:38.143Z,14.95
2023-02-08T09:33:07.519Z,15.57
2023-02-08T09:35:35.312Z,15.88
2023-02-08T09:38:04.544Z,18.13
2023-02-08T09:40:39.498Z,18.17
2023-02-08T09:43:13.163Z,16.35
2023-02-08T09:45:59.274Z,13.07
2023-02-08T09:48:32.554Z,18.92
2023-02-08T09:51:05.518Z,16.65
2023-02-08T09:53:36.071Z,13.60
2023-02-08T09:56:06.373Z,13.50
2023-02-08T09:58:38.339Z,12.38
2023-02-08T10:01:08.711Z,17.00
2023-02-08T10:03:41.416Z,16.58
2023-02-08T10:06:12.529Z,14.77
2023-02-08T10:08:41.410Z,17.00
2023-02-08T10:11:24.465Z,14.30
2023-02-08T10:14:05.394Z,13.55
2023-02-08T10:16:56.076Z,12.82
2023-02-08T10:19:41.643Z,12.70
2023-02-08T10:22:20.375Z,11.00
2023-02-08T10:25:17.890Z,12.60
2023-02-08T10:27:59.270Z,12.07
2023-02-08T10:30:38.640Z,16.50
2023-02-08T10:33:13.383Z,10.68
2023-02-08T10:35:47.400Z,11.93
2023-02-08T10:38:29.683Z,23.85
2023-02-08T10:41:05.602Z,11.23
2023-02-08T10:43:41.450Z,12.32
2023-02-08T10:46:18.225Z,13.20
2023-02-08T10:48:58.623Z,13.38
2023-02-08T10:51:29.863Z,12.30
2023-02-08T10:53:58.577Z,11.63
2023-02-08T10:56:41.063Z,19.52
2023-02-08T10:59:20.059Z,10.93
2023-02-08T11:01:49.703Z,9.00
2023-02-08T11:04:18.838Z,11.77
2023-02-08T11:06:50.194Z,9.40
2023-02-08T11:09:24.179Z,17.77
2023-02-08T11:11:53.441Z,13.25
2023-02-08T11:14:30.357Z,13.73
2023-02-08T11:17:05.724Z,14.50
2023-02-08T11:19:36.557Z,16.10
2023-02-08T11:22:06.724Z,10.80
2023-02-08T11:24:40.074Z,18.02
2023-02-08T11:27:19.200Z,14.48
2023-02-08T11:29:47.067Z,11.48
2023-02-08T11:32:18.198Z,9.98
2023-02-08T11:34:46.471Z,12.90
2023-02-08T11:37:25.880Z,17.63
2023-02-08T11:39:56.399Z,10.98
2023-02-08T11:42:26.667Z,9.23
2023-02-08T11:44:55.809Z,12.63
2023-02-08T11:47:26.679Z,12.82
2023-02-08T11:49:56.847Z,12.48
2023-02-08T11:52:31.340Z,11.57
2023-02-08T11:55:15.664Z,13.95
2023-02-08T11:57:54.420Z,11.50
2023-02-08T12:00:25.488Z,14.90
2023-02-08T12:03:01.415Z,16.00
2023-02-08T12:05:42.660Z,14.43
2023-02-08T12:08:19.970Z,14.77
2023-02-08T12:11:05.148Z,14.05
2023-02-08T12:13:47.604Z,13.48
2023-02-08T12:16:34.419Z,15.90
2023-02-08T12:19:50.574Z,21.88
2023-02-08T12:22:24.679Z,14.35
2023-02-08T12:25:01.703Z,9.65
2023-02-08T12:27:43.824Z,9.18
2023-02-08T12:30:22.930Z,13.75
2023-02-08T12:33:05.303Z,10.32
2023-02-08T12:36:04.195Z,13.07
2023-02-08T12:39:21.916Z,9.23
2023-02-08T12:42:05.890Z,14.82
2023-02-08T12:44:44.016Z,14.90
2023-02-08T12:47:26.803Z,17.13
2023-02-08T12:50:04.418Z,8.90
2023-02-08T12:52:38.971Z,9.52
2023-02-08T12:55:17.323Z,16.10
2023-02-08T12:57:52.910Z,12.40
2023-02-08T13:00:24.406Z,12.52
2023-02-08T13:02:58.306Z,11.63
2023-02-08T13:05:31.445Z,9.55
2023-02-08T13:08:04.817Z,11.00
2023-02-08T13:10:37.993Z,8.60
2023-02-08T13:13:17.273Z,10.77
2023-02-08T13:15:48.155Z,11.75
2023-02-08T13:18:21.226Z,7.70
2023-02-08T13:20:52.549Z,11.73
2023-02-08T13:23:26.127Z,8.30
2023-02-08T13:25:57.225Z,11.32
2023-02-08T13:28:28.133Z,8.27
2023-02-08T13:31:01.159Z,10.27
2023-02-08T13:33:41.071Z,5.93
2023-02-08T13:36:22.292Z,7.38
2023-02-08T13:38:50.832Z,10.95
2023-02-08T13:41:20.917Z,7.32
2023-02-08T13:43:55.641Z,5.28
2023-02-08T13:46:25.544Z,6.40
2023-02-08T13:48:56.574Z,6.68
2023-02-08T13:51:55.117Z,27.83
2023-02-08T13:54:22.928Z,6.05
2023-02-08T13:56:52.337Z,8.25
2023-02-08T13:59:33.975Z,5.38
2023-02-08T14:02:29.561Z,9.27
2023-02-08T14:05:34.670Z,22.33
2023-02-08T14:08:05.174Z,7.20
2023-02-08T14:10:40.412Z,8.85
2023-02-08T14:13:23.778Z,6.55
2023-02-08T14:16:27.361Z,6.28
2023-02-08T14:18:57.367Z,8.88
2023-02-08T14:21:33.326Z,8.35
2023-02-08T14:24:04.168Z,8.65
2023-02-08T14:26:32.546Z,8.60
2023-02-08T14:29:04.103Z,11.63
2023-02-08T14:31:46.268Z,11.23
2023-02-08T14:34:27.414Z,8.70
2023-02-08T14:37:05.351Z,6.35
2023-02-08T14:39:34.617Z,7.40
2023-02-08T14:42:05.439Z,7.32
2023-02-08T14:44:58.446Z,7.68
2023-02-08T14:48:04.079Z,9.43
2023-02-08T14:50:42.818Z,7.72
2023-02-08T14:53:25.361Z,7.75
2023-02-08T14:55:59.253Z,13.02
2023-02-08T14:58:32.724Z,7.63
2023-02-08T15:01:04.900Z,10.85
2023-02-08T15:03:36.089Z,8.30
2023-02-08T15:06:36.079Z,8.50
2023-02-08T15:09:06.731Z,10.82
2023-02-08T15:11:36.403Z,9.85
2023-02-08T15:14:06.008Z,11.40
2023-02-08T15:16:37.614Z,10.00
2023-02-08T15:19:06.911Z,12.07
2023-02-08T15:21:38.768Z,8.38
2023-02-08T15:24:16.104Z,12.65
2023-02-08T15:26:48.222Z,10.45
2023-02-08T15:29:23.236Z,12.55
2023-02-08T15:31:54.041Z,8.98
2023-02-08T15:34:25.617Z,9.75
2023-02-08T15:36:57.337Z,9.95
2023-02-08T15:39:35.490Z,11.13
2023-02-08T15:42:03.315Z,6.10
2023-02-08T15:44:32.768Z,10.85
2023-02-08T15:47:03.521Z,8.15
2023-02-08T15:49:34.862Z,7.70
2023-02-08T15:52:05.263Z,8.52
2023-02-08T15:54:33.458Z,9.70
2023-02-08T15:57:05.120Z,9.80
2023-02-08T15:59:36.448Z,13.50
2023-02-08T16:02:22.788Z,11.70
2023-02-08T16:04:50.781Z,8.93
2023-02-08T16:07:28.075Z,9.45
2023-02-08T16:09:57.934Z,10.38
2023-02-08T16:12:28.349Z,11.82
2023-02-08T16:14:57.107Z,11.90
2023-02-08T16:17:44.107Z,17.45
2023-02-08T16:20:30.128Z,15.93
2023-02-08T16:23:02.934Z,15.50
2023-02-08T16:25:37.422Z,11.05
2023-02-08T16:28:07.092Z,11.77
2023-02-08T16:30:35.047Z,16.90
2023-02-08T16:33:10.010Z,20.63
2023-02-08T16:35:40.998Z,14.73
2023-02-08T16:38:11.656Z,14.82
2023-02-08T16:40:51.276Z,14.60
2023-02-08T16:43:22.833Z,19.17
2023-02-08T16:46:21.123Z,19.88
2023-02-08T16:48:52.118Z,19.10
2023-02-08T16:51:23.149Z,17.80
2023-02-08T16:53:54.777Z,24.83
2023-02-08T16:56:23.435Z,22.70
2023-02-08T16:58:51.295Z,23.88
2023-02-08T17:01:20.848Z,20.08
2023-02-08T17:03:50.029Z,20.52
2023-02-08T17:06:28.450Z,21.48
2023-02-08T17:08:57.981Z,22.00
2023-02-08T17:11:26.149Z,21.92
2023-02-08T17:13:54.269Z,22.45
2023-02-08T17:16:24.161Z,30.70
2023-02-08T17:18:52.282Z,23.02
2023-02-08T17:21:20.667Z,24.98
2023-02-08T17:23:48.514Z,22.92
2023-02-08T17:26:22.174Z,26.38
2023-02-08T17:28:50.832Z,21.95
2023-02-08T17:31:19.118Z,26.30
2023-02-08T17:33:46.981Z,29.77
2023-02-08T17:36:16.897Z,28.80
2023-02-08T17:38:46.048Z,26.20
2023-02-08T17:41:18.047Z,24.33
2023-02-08T17:43:46.264Z,30.17
2023-02-08T17:46:18.269Z,32.53
2023-02-08T17:48:48.199Z,37.60
2023-02-08T17:51:17.767Z,28.67
2023-02-08T17:53:45.931Z,30.45
2023-02-08T17:56:14.849Z,32.20
2023-02-08T17:58:44.690Z,31.90
2023-02-08T18:01:17.355Z,32.28
2023-02-08T18:03:45.644Z,28.77
2023-02-08T18:06:13.925Z,31.50
2023-02-08T18:08:42.296Z,33.70
2023-02-08T18:11:15.839Z,32.78
2023-02-08T18:13:45.659Z,33.03
2023-02-08T18:16:15.588Z,31.90
2023-02-08T18:18:44.101Z,34.03
2023-02-08T18:21:13.334Z,35.08
2023-02-08T18:23:41.990Z,30.85
2023-02-08T18:26:12.216Z,31.63
2023-02-08T18:28:40.654Z,31.95
2023-02-08T18:31:14.392Z,33.70
2023-02-08T18:33:43.654Z,30.13
2023-02-08T18:36:12.413Z,32.13
2023-02-08T18:38:40.560Z,40.72
2023-02-08T18:41:09.854Z,38.08
2023-02-08T18:43:38.580Z,33.60
2023-02-08T18:46:09.809Z,33.17
2023-02-08T18:48:39.569Z,36.20
2023-02-08T18:51:08.879Z,37.67
2023-02-08T18:53:39.168Z,33.75
2023-02-08T18:56:08.791Z,36.60
2023-02-08T18:58:36.817Z,33.47
2023-02-08T19:01:08.701Z,36.90
2023-02-08T19:03:36.831Z,36.22
2023-02-08T19:06:08.979Z,35.90
2023-02-08T19:08:37.513Z,38.78
2023-02-08T19:11:06.356Z,38.13
2023-02-08T19:13:35.436Z,36.53
2023-02-08T19:16:03.850Z,33.45
2023-02-08T19:18:31.710Z,39.50
2023-02-08T19:21:04.136Z,31.35
2023-02-08T19:23:33.755Z,33.60
2023-02-08T19:26:03.390Z,34.88
2023-02-08T19:28:34.536Z,33.92
2023-02-08T19:31:06.801Z,34.45
2023-02-08T19:33:34.639Z,32.65
2023-02-08T19:36:08.218Z,34.90
2023-02-08T19:38:37.796Z,37.15
2023-02-08T19:41:06.858Z,37.08
2023-02-08T19:43:35.359Z,38.55
2023-02-08T19:46:03.351Z,35.83
2023-02-08T19:48:31.131Z,33.47
2023-02-08T19:51:00.684Z,38.60
2023-02-08T19:53:28.680Z,35.92
2023-02-08T19:55:59.003Z,34.53
2023-02-08T19:58:27.352Z,35.35
2023-02-08T20:00:55.384Z,37.85
2023-02-08T20:03:24.213Z,40.10
2023-02-08T20:05:53.542Z,39.67
2023-02-08T20:08:25.844Z,34.78
2023-02-08T20:10:56.250Z,36.05
2023-02-08T20:13:25.326Z,41.13
2023-02-08T20:15:59.615Z,35.60
2023-02-08T20:18:27.447Z,35.95
2023-02-08T20:21:02.068Z,38.95
2023-02-08T20:23:29.961Z,40.55
2023-02-08T20:26:10.275Z,31.45
2023-02-08T20:28:41.538Z,37.35
2023-02-08T20:31:10.010Z,35.05
2023-02-08T20:33:38.017Z,37.47
2023-02-08T20:36:09.371Z,32.42
2023-02-08T20:38:38.370Z,36.00
2023-02-08T20:41:09.458Z,44.70
2023-02-08T20:43:38.964Z,30.52
2023-02-08T20:46:08.484Z,38.45
2023-02-08T20:48:36.380Z,41.15
2023-02-08T20:51:06.004Z,42.20
2023-02-08T20:53:34.700Z,38.40
2023-02-08T20:56:06.132Z,36.05
2023-02-08T20:58:33.914Z,35.17
2023-02-08T21:01:03.119Z,33.58
2023-02-08T21:03:30.828Z,30.65
2023-02-08T21:05:58.496Z,28.23
2023-02-08T21:08:26.313Z,28.42
2023-02-08T21:10:54.046Z,36.47
2023-02-08T21:13:21.751Z,33.17
2023-02-08T21:15:49.525Z,31.63
2023-02-08T21:18:18.635Z,38.30
2023-02-08T21:20:46.691Z,40.30
2023-02-08T21:23:14.622Z,39.45
2023-02-08T21:25:44.400Z,40.22
2023-02-08T21:28:12.254Z,36.38
2023-02-08T21:30:40.532Z,35.72
2023-02-08T21:33:08.477Z,38.83
2023-02-08T21:35:38.063Z,37.78
2023-02-08T21:38:06.069Z,35.60
2023-02-08T21:40:33.968Z,39.13
2023-02-08T21:43:01.783Z,39.53
2023-02-08T21:45:29.482Z,39.63
2023-02-08T21:47:57.360Z,36.15
2023-02-08T21:50:43.404Z,33.53
2023-02-08T21:53:31.335Z,37.72
2023-02-08T21:55:59.348Z,36.08
2023-02-08T21:58:27.178Z,38.08
2023-02-08T22:00:54.888Z,40.70
2023-02-08T22:03:22.777Z,33.17
2023-02-08T22:06:08.071Z,31.45
2023-02-08T22:08:38.390Z,31.08
2023-02-08T22:11:08.619Z,40.88
2023-02-08T22:13:36.721Z,38.97
2023-02-08T22:16:09.281Z,35.38
2023-02-08T22:18:37.213Z,33.50
2023-02-08T22:21:05.369Z,34.75
2023-02-08T22:23:33.156Z,34.45
2023-02-08T22:26:07.332Z,27.17
2023-02-08T22:28:35.279Z,33.38
2023-02-08T22:31:03.202Z,31.75
2023-02-08T22:33:31.307Z,30.92
2023-02-08T22:35:59.071Z,31.55
2023-02-08T22:38:26.812Z,33.97
2023-02-08T22:40:54.620Z,38.83
2023-02-08T22:43:23.757Z,34.33
2023-02-08T22:45:58.183Z,33.88
2023-02-08T22:48:26.098Z,32.25
2023-02-08T22:50:54.014Z,32.22
2023-02-08T22:53:22.133Z,35.70
2023-02-08T22:55:50.903Z,32.80
2023-02-08T22:58:18.814Z,32.47
2023-02-08T23:00:49.197Z,35.10
2023-02-08T23:03:18.078Z,35.08
2023-02-08T23:05:47.623Z,35.03
2023-02-08T23:08:17.345Z,28.40
2023-02-08T23:10:45.965Z,33.10
2023-02-08T23:13:14.374Z,30.25
2023-02-08T23:15:44.804Z,26.17
2023-02-08T23:18:14.085Z,24.90
2023-02-08T23:20:42.730Z,27.27
2023-02-08T23:23:10.680Z,25.63
2023-02-08T23:25:40.569Z,27.90
2023-02-08T23:28:09.320Z,29.15
2023-02-08T23:30:40.162Z,29.25
2023-02-08T23:33:08.358Z,27.98
2023-02-08T23:35:41.590Z,31.83
2023-02-08T23:38:09.845Z,27.10
2023-02-08T23:40:37.723Z,26.13
2023-02-08T23:43:05.443Z,30.85
2023-02-08T23:45:33.187Z,23.90
2023-02-08T23:48:01.024Z,25.08
2023-02-08T23:50:28.782Z,21.40
2023-02-08T23:52:58.105Z,29.38
2023-02-08T23:55:27.445Z,21.85
2023-02-08T23:57:55.244Z,27.17
